createdAt,value
2019-04-22T00:00:08.639Z,2.90
2019-04-22T00:01:16.452Z,3.10
2019-04-22T00:02:11.335Z,2.80
2019-04-22T00:03:12.282Z,2.90
2019-04-22T00:04:13.579Z,3.00
2019-04-22T00:05:21.504Z,3.40
2019-04-22T00:06:32.803Z,2.90
2019-04-22T00:07:28.624Z,3.00
2019-04-22T00:08:38.431Z,3.00
2019-04-22T00:09:30.989Z,2.70
2019-04-22T00:12:34.619Z,3.10
2019-04-22T00:13:40.683Z,2.90
2019-04-22T00:14:28.304Z,3.00
2019-04-22T00:15:29.198Z,2.90
2019-04-22T00:16:43.147Z,3.10
2019-04-22T00:17:38.532Z,2.70
2019-04-22T00:18:46.815Z,2.60
2019-04-22T00:19:37.224Z,3.10
2019-04-22T00:20:35.277Z,3.30
2019-04-22T00:21:42.178Z,3.30
2019-04-22T00:22:32.466Z,2.70
2019-04-22T00:23:34.610Z,3.00
2019-04-22T00:24:35.517Z,2.90
2019-04-22T00:25:35.889Z,2.90
2019-04-22T00:26:37.739Z,2.90
2019-04-22T00:27:40.555Z,2.70
2019-04-22T00:28:36.555Z,2.80
2019-04-22T00:29:49.385Z,3.10
2019-04-22T00:30:28.109Z,2.70
2019-04-22T00:31:34.732Z,2.90
2019-04-22T00:32:30.569Z,3.10
2019-04-22T00:33:34.264Z,3.00
2019-04-22T00:34:27.119Z,3.00
2019-04-22T00:35:33.194Z,3.00
2019-04-22T00:36:28.939Z,3.00
2019-04-22T00:37:41.070Z,2.80
2019-04-22T00:39:35.927Z,2.80
2019-04-22T00:40:33.949Z,2.80
2019-04-22T00:41:40.915Z,3.00
2019-04-22T00:42:34.840Z,2.90
2019-04-22T00:43:33.260Z,2.90
2019-04-22T00:44:35.172Z,3.00
2019-04-22T00:45:33.322Z,2.90
2019-04-22T00:46:34.021Z,3.10
2019-04-22T00:47:32.461Z,2.70
2019-04-22T00:48:38.267Z,2.90
2019-04-22T00:50:30.510Z,2.80
2019-04-22T00:51:35.988Z,2.90
2019-04-22T00:52:35.806Z,3.00
2019-04-22T00:53:35.309Z,2.70
2019-04-22T00:54:37.691Z,3.10
2019-04-22T00:55:31.221Z,3.00
2019-04-22T00:56:28.249Z,2.80
2019-04-22T00:57:32.356Z,3.00
2019-04-22T00:58:33.876Z,2.90
2019-04-22T00:59:29.717Z,2.70
2019-04-22T01:00:31.090Z,2.90
2019-04-22T01:01:31.400Z,2.90
2019-04-22T01:02:34.685Z,2.90
2019-04-22T01:03:40.511Z,3.10
2019-04-22T01:04:39.281Z,2.90
2019-04-22T01:05:34.460Z,3.10
2019-04-22T01:06:35.875Z,3.00
2019-04-22T01:07:30.517Z,3.10
2019-04-22T01:08:39.076Z,3.10
2019-04-22T01:09:32.618Z,2.90
2019-04-22T01:10:34.098Z,3.00
2019-04-22T01:11:53.741Z,2.90
2019-04-22T01:12:34.638Z,2.90
2019-04-22T01:13:30.555Z,3.10
2019-04-22T01:14:35.595Z,3.00
2019-04-22T01:15:33.683Z,2.80
2019-04-22T01:16:50.467Z,2.70
2019-04-22T01:17:34.481Z,2.80
2019-04-22T01:18:29.230Z,3.00
2019-04-22T01:19:40.369Z,3.10
2019-04-22T01:21:36.838Z,3.00
2019-04-22T01:22:27.080Z,2.80
2019-04-22T01:23:29.590Z,3.20
2019-04-22T01:24:28.165Z,2.80
2019-04-22T01:25:24.968Z,3.20
2019-04-22T01:26:26.493Z,2.90
2019-04-22T01:27:22.135Z,3.20
2019-04-22T01:28:23.977Z,3.10
2019-04-22T01:29:19.980Z,3.10
2019-04-22T01:30:19.757Z,2.90
2019-04-22T01:31:12.278Z,3.00
2019-04-22T01:32:16.571Z,2.90
2019-04-22T01:33:16.023Z,3.00
2019-04-22T01:34:23.217Z,3.20
2019-04-22T01:35:20.836Z,2.70
2019-04-22T01:36:25.979Z,2.80
2019-04-22T01:37:26.878Z,2.90
2019-04-22T01:38:24.914Z,2.90
2019-04-22T01:39:31.951Z,3.20
2019-04-22T01:40:33.487Z,3.30
2019-04-22T01:41:41.795Z,2.80
2019-04-22T01:42:35.333Z,3.20
2019-04-22T01:43:44.101Z,2.70
2019-04-22T01:44:33.299Z,2.90
2019-04-22T01:45:36.289Z,2.90
2019-04-22T01:46:39.323Z,3.00
2019-04-22T01:48:34.887Z,3.20
2019-04-22T01:49:34.425Z,3.00
2019-04-22T01:50:30.712Z,3.00
2019-04-22T01:51:47.151Z,3.10
2019-04-22T01:52:29.407Z,3.00
2019-04-22T01:53:33.750Z,2.80
2019-04-22T01:54:40.301Z,2.60
2019-04-22T01:56:38.992Z,3.20
2019-04-22T01:57:28.781Z,2.90
2019-04-22T01:58:30.936Z,2.80
2019-04-22T01:59:27.180Z,3.00
2019-04-22T02:00:38.549Z,2.90
2019-04-22T02:01:37.658Z,2.80
2019-04-22T02:02:40.014Z,2.90
2019-04-22T02:03:33.288Z,2.80
2019-04-22T02:04:38.318Z,3.10
2019-04-22T02:05:28.755Z,3.30
2019-04-22T02:06:37.601Z,2.80
2019-04-22T02:07:37.115Z,3.00
2019-04-22T02:08:40.543Z,3.00
2019-04-22T02:09:38.661Z,2.80
2019-04-22T02:10:44.581Z,3.10
2019-04-22T02:11:40.374Z,3.10
2019-04-22T02:12:36.863Z,3.10
2019-04-22T02:13:36.687Z,2.90
2019-04-22T02:14:33.081Z,2.60
2019-04-22T02:15:32.877Z,2.80
2019-04-22T02:16:34.249Z,2.70
2019-04-22T02:17:41.621Z,2.90
2019-04-22T02:20:35.869Z,3.00
2019-04-22T02:21:31.593Z,2.80
2019-04-22T02:22:57.044Z,2.80
2019-04-22T02:24:39.584Z,2.70
2019-04-22T02:25:34.470Z,2.90
2019-04-22T02:26:35.484Z,2.70
2019-04-22T02:28:36.986Z,2.70
2019-04-22T02:29:36.200Z,2.70
2019-04-22T02:30:57.241Z,2.80
2019-04-22T02:34:40.054Z,2.90
2019-04-22T02:35:48.702Z,3.10
2019-04-22T02:37:35.366Z,3.10
2019-04-22T02:38:53.413Z,2.90
2019-04-22T02:39:39.208Z,2.70
2019-04-22T02:40:50.700Z,2.90
2019-04-22T02:41:31.181Z,2.80
2019-04-22T02:42:51.854Z,2.90
2019-04-22T02:44:35.845Z,2.70
2019-04-22T02:45:54.307Z,3.10
2019-04-22T02:46:53.358Z,2.90
2019-04-22T02:47:50.331Z,2.60
2019-04-22T02:50:36.617Z,2.70
2019-04-22T02:55:41.198Z,2.90
2019-04-22T02:57:39.985Z,2.70
2019-04-22T02:58:55.052Z,3.10
2019-04-22T03:00:40.188Z,3.10
2019-04-22T03:01:36.101Z,2.60
2019-04-22T03:03:06.281Z,2.90
2019-04-22T03:03:51.877Z,3.00
2019-04-22T03:04:52.960Z,2.80
2019-04-22T03:05:51.067Z,3.00
2019-04-22T03:06:34.860Z,2.80
2019-04-22T03:07:41.831Z,2.90
2019-04-22T03:08:41.835Z,2.80
2019-04-22T03:09:38.542Z,2.60
2019-04-22T03:10:51.466Z,2.90
2019-04-22T03:11:50.019Z,2.80
2019-04-22T03:13:46.862Z,2.60
2019-04-22T03:14:38.145Z,2.60
2019-04-22T03:15:44.785Z,2.80
2019-04-22T03:17:41.485Z,2.90
2019-04-22T03:18:53.712Z,2.80
2019-04-22T03:20:39.484Z,2.80
2019-04-22T03:22:38.903Z,3.00
2019-04-22T03:23:45.908Z,3.10
2019-04-22T03:25:12.477Z,2.90
2019-04-22T03:27:56.385Z,3.10
2019-04-22T03:28:46.268Z,2.90
2019-04-22T03:29:44.672Z,2.80
2019-04-22T03:33:04.987Z,3.00
2019-04-22T03:33:40.001Z,2.80
2019-04-22T03:37:06.749Z,3.00
2019-04-22T03:37:53.206Z,2.60
2019-04-22T03:38:55.641Z,3.10
2019-04-22T03:40:52.798Z,2.90
2019-04-22T03:42:32.490Z,2.80
2019-04-22T03:44:38.875Z,3.00
2019-04-22T03:45:46.601Z,2.90
2019-04-22T03:46:43.879Z,2.80
2019-04-22T03:48:36.314Z,2.50
2019-04-22T03:50:52.369Z,2.80
2019-04-22T03:51:47.960Z,2.80
2019-04-22T03:52:30.947Z,2.50
2019-04-22T03:58:37.420Z,2.80
2019-04-22T04:00:43.687Z,2.60
2019-04-22T04:01:45.850Z,2.80
2019-04-22T04:03:40.190Z,2.80
2019-04-22T04:06:50.567Z,2.80
2019-04-22T04:07:55.828Z,2.60
2019-04-22T04:08:51.784Z,2.80
2019-04-22T04:10:49.855Z,3.20
2019-04-22T04:11:57.978Z,2.80
2019-04-22T04:12:38.236Z,2.60
2019-04-22T04:13:39.557Z,2.80
2019-04-22T04:15:29.977Z,2.90
2019-04-22T04:16:41.321Z,2.60
2019-04-22T04:17:51.900Z,2.80
2019-04-22T04:18:58.150Z,2.90
2019-04-22T04:20:39.388Z,2.70
2019-04-22T04:21:53.550Z,2.90
2019-04-22T04:22:53.776Z,2.60
2019-04-22T04:23:50.087Z,2.90
2019-04-22T04:25:42.505Z,2.70
2019-04-22T04:30:31.535Z,2.50
2019-04-22T04:32:41.589Z,2.80
2019-04-22T04:33:38.856Z,2.90
2019-04-22T04:34:55.854Z,2.90
2019-04-22T04:36:42.437Z,2.90
2019-04-22T04:39:49.976Z,2.90
2019-04-22T04:39:51.080Z,2.90
2019-04-22T04:40:31.213Z,2.90
2019-04-22T04:42:38.583Z,2.90
2019-04-22T04:43:46.541Z,3.00
2019-04-22T04:45:45.078Z,2.60
2019-04-22T04:47:47.586Z,2.60
2019-04-22T04:49:48.399Z,2.90
2019-04-22T04:50:38.257Z,2.70
2019-04-22T04:51:41.410Z,2.70
2019-04-22T04:54:01.163Z,3.00
2019-04-22T04:54:44.779Z,2.70
2019-04-22T04:57:43.593Z,2.60
2019-04-22T04:57:46.854Z,2.50
2019-04-22T05:00:00.003Z,2.80
2019-04-22T05:01:45.000Z,2.80
2019-04-22T05:02:53.060Z,2.70
2019-04-22T05:03:48.911Z,2.50
2019-04-22T05:04:51.009Z,2.60
2019-04-22T05:05:39.602Z,2.90
2019-04-22T05:06:43.200Z,2.70
2019-04-22T05:09:41.141Z,2.70
2019-04-22T05:11:47.476Z,2.50
2019-04-22T05:13:49.223Z,2.80
2019-04-22T05:14:28.919Z,2.60
2019-04-22T05:15:35.135Z,2.60
2019-04-22T05:18:37.726Z,2.70
2019-04-22T05:19:32.007Z,2.70
2019-04-22T05:20:42.276Z,2.70
2019-04-22T05:22:34.147Z,2.80
2019-04-22T05:23:41.968Z,2.80
2019-04-22T05:24:56.897Z,2.50
2019-04-22T05:25:28.458Z,2.70
2019-04-22T05:26:34.194Z,2.80
2019-04-22T05:27:36.376Z,2.70
2019-04-22T05:28:30.273Z,2.60
2019-04-22T05:29:41.851Z,2.80
2019-04-22T05:30:37.518Z,2.60
2019-04-22T05:33:32.301Z,2.60
2019-04-22T05:34:28.134Z,2.60
2019-04-22T05:35:30.924Z,2.80
2019-04-22T05:36:34.424Z,2.70
2019-04-22T05:37:32.816Z,2.70
2019-04-22T05:38:37.949Z,2.70
2019-04-22T05:39:34.016Z,2.40
2019-04-22T05:41:28.995Z,2.70
2019-04-22T05:42:25.969Z,2.80
2019-04-22T05:43:28.941Z,2.70
2019-04-22T05:44:29.569Z,2.70
2019-04-22T05:45:31.750Z,2.50
2019-04-22T05:46:28.597Z,2.70
2019-04-22T05:47:25.675Z,2.60
2019-04-22T05:48:34.188Z,2.60
2019-04-22T05:49:28.988Z,2.90
2019-04-22T05:50:47.012Z,2.70
2019-04-22T05:51:32.536Z,2.70
2019-04-22T05:52:25.606Z,2.50
2019-04-22T05:53:28.893Z,2.50
2019-04-22T05:57:44.265Z,2.50
2019-04-22T05:58:30.763Z,2.50
2019-04-22T05:59:34.426Z,2.90
2019-04-22T06:00:40.426Z,2.80
2019-04-22T06:01:38.912Z,2.70
2019-04-22T06:02:43.182Z,2.60
2019-04-22T06:03:31.794Z,2.70
2019-04-22T06:04:29.578Z,2.70
2019-04-22T06:05:32.942Z,2.60
2019-04-22T06:06:40.946Z,2.80
2019-04-22T06:07:29.116Z,2.80
2019-04-22T06:08:38.097Z,2.60
2019-04-22T06:09:28.849Z,2.80
2019-04-22T06:10:33.180Z,2.40
2019-04-22T06:12:23.524Z,2.50
2019-04-22T06:13:25.752Z,2.60
2019-04-22T06:14:24.885Z,2.20
2019-04-22T06:15:30.091Z,2.60
2019-04-22T06:16:31.122Z,2.60
2019-04-22T06:17:31.782Z,2.40
2019-04-22T06:18:27.060Z,2.70
2019-04-22T06:19:27.906Z,2.40
2019-04-22T06:20:32.343Z,2.70
2019-04-22T06:21:35.809Z,2.70
2019-04-22T06:22:37.300Z,3.00
2019-04-22T06:23:34.543Z,2.30
2019-04-22T06:24:27.901Z,2.90
2019-04-22T06:25:38.848Z,2.60
2019-04-22T06:26:37.570Z,2.30
2019-04-22T06:28:35.297Z,2.40
2019-04-22T06:29:30.114Z,2.40
2019-04-22T06:30:28.382Z,2.90
2019-04-22T06:31:37.223Z,2.30
2019-04-22T06:32:31.458Z,2.40
2019-04-22T06:33:34.797Z,2.60
2019-04-22T06:34:30.624Z,2.50
2019-04-22T06:36:30.936Z,2.70
2019-04-22T06:37:54.956Z,2.50
2019-04-22T06:40:31.605Z,2.40
2019-04-22T06:41:31.635Z,2.60
2019-04-22T06:42:28.263Z,2.60
2019-04-22T06:43:29.606Z,2.60
2019-04-22T06:44:33.381Z,2.60
2019-04-22T06:45:28.846Z,2.80
2019-04-22T06:47:45.935Z,2.50
2019-04-22T06:48:44.712Z,2.30
2019-04-22T06:49:31.856Z,2.50
2019-04-22T06:50:44.334Z,2.70
2019-04-22T06:51:35.635Z,2.50
2019-04-22T06:52:50.252Z,2.40
2019-04-22T06:53:32.826Z,2.20
2019-04-22T06:54:28.860Z,2.40
2019-04-22T06:55:35.756Z,2.60
2019-04-22T06:56:27.591Z,2.80
2019-04-22T06:57:30.493Z,2.50
2019-04-22T06:58:29.022Z,2.50
2019-04-22T06:59:44.029Z,2.40
2019-04-22T07:00:32.334Z,2.50
2019-04-22T07:01:31.431Z,2.60
2019-04-22T07:02:32.033Z,2.50
2019-04-22T07:03:45.903Z,2.60
2019-04-22T07:04:30.370Z,2.60
2019-04-22T07:05:27.899Z,2.50
2019-04-22T07:07:23.817Z,2.70
2019-04-22T07:09:03.258Z,2.80
2019-04-22T07:09:38.310Z,2.70
2019-04-22T07:10:35.170Z,2.40
2019-04-22T07:11:26.682Z,2.60
2019-04-22T07:12:29.159Z,2.30
2019-04-22T07:13:27.794Z,2.70
2019-04-22T07:14:23.456Z,2.50
2019-04-22T07:15:42.334Z,2.90
2019-04-22T07:16:32.128Z,2.60
2019-04-22T07:17:31.038Z,2.50
2019-04-22T07:18:31.190Z,2.80
2019-04-22T07:19:28.463Z,2.50
2019-04-22T07:20:30.555Z,2.40
2019-04-22T07:21:32.159Z,2.90
2019-04-22T07:22:29.303Z,2.70
2019-04-22T07:23:31.963Z,2.70
2019-04-22T07:25:29.059Z,2.80
2019-04-22T07:26:24.475Z,2.50
2019-04-22T07:27:27.815Z,2.50
2019-04-22T07:28:27.475Z,2.40
2019-04-22T07:29:28.760Z,2.60
2019-04-22T07:30:28.004Z,2.50
2019-04-22T07:31:27.266Z,2.80
2019-04-22T07:33:48.540Z,2.60
2019-04-22T07:38:36.186Z,2.40
2019-04-22T07:39:29.731Z,3.00
2019-04-22T07:40:37.181Z,2.40
2019-04-22T07:41:28.743Z,2.40
2019-04-22T07:42:32.714Z,2.50
2019-04-22T07:44:31.207Z,2.60
2019-04-22T07:45:29.541Z,2.60
2019-04-22T07:46:43.431Z,2.40
2019-04-22T07:47:35.871Z,2.40
2019-04-22T07:48:33.303Z,2.50
2019-04-22T07:49:33.808Z,2.70
2019-04-22T07:50:47.540Z,2.60
2019-04-22T07:51:27.040Z,2.60
2019-04-22T07:52:31.766Z,2.60
2019-04-22T07:53:32.440Z,2.50
2019-04-22T07:54:29.226Z,2.20
2019-04-22T07:55:30.157Z,2.60
2019-04-22T07:56:29.269Z,2.30
2019-04-22T07:57:47.152Z,2.50
2019-04-22T07:58:29.008Z,2.80
2019-04-22T07:59:28.014Z,2.60
2019-04-22T08:00:31.174Z,2.60
2019-04-22T08:01:28.085Z,2.50
2019-04-22T08:02:32.687Z,2.60
2019-04-22T08:03:51.437Z,2.50
2019-04-22T08:05:32.925Z,2.50
2019-04-22T08:06:30.957Z,2.50
2019-04-22T08:07:33.139Z,2.60
2019-04-22T08:10:43.245Z,2.60
2019-04-22T08:12:34.265Z,2.60
2019-04-22T08:13:31.302Z,2.30
2019-04-22T08:14:30.109Z,2.60
2019-04-22T08:15:31.277Z,2.40
2019-04-22T08:16:34.641Z,2.50
2019-04-22T08:18:28.312Z,2.50
2019-04-22T08:19:26.909Z,2.40
2019-04-22T08:20:30.729Z,2.40
2019-04-22T08:21:23.776Z,2.40
2019-04-22T08:22:26.029Z,2.10
2019-04-22T08:23:33.612Z,2.20
2019-04-22T08:24:29.377Z,2.20
2019-04-22T08:25:24.916Z,2.40
2019-04-22T08:26:27.397Z,2.40
2019-04-22T08:27:31.968Z,2.30
2019-04-22T08:28:32.118Z,2.40
2019-04-22T08:31:31.650Z,2.40
2019-04-22T08:32:28.415Z,2.40
2019-04-22T08:33:29.036Z,2.60
2019-04-22T08:34:24.826Z,2.20
2019-04-22T08:35:40.863Z,2.50
2019-04-22T08:37:10.266Z,2.40
2019-04-22T08:39:33.201Z,2.70
2019-04-22T08:42:36.560Z,2.50
2019-04-22T08:43:37.966Z,2.60
2019-04-22T08:44:41.624Z,2.50
2019-04-22T08:45:40.116Z,2.30
2019-04-22T08:46:42.026Z,2.40
2019-04-22T08:47:31.163Z,2.30
2019-04-22T08:48:33.064Z,2.60
2019-04-22T08:49:16.429Z,2.50
2019-04-22T08:50:31.287Z,2.30
2019-04-22T08:51:31.084Z,2.40
2019-04-22T08:52:31.851Z,2.20
2019-04-22T08:53:34.326Z,2.50
2019-04-22T08:54:28.359Z,2.80
2019-04-22T08:55:32.843Z,2.60
2019-04-22T08:56:33.739Z,2.60
2019-04-22T08:57:34.640Z,2.60
2019-04-22T08:58:29.465Z,2.70
2019-04-22T08:59:24.759Z,2.50
2019-04-22T09:00:31.645Z,2.50
2019-04-22T09:01:27.049Z,2.60
2019-04-22T09:02:46.642Z,2.40
2019-04-22T09:03:25.948Z,2.40
2019-04-22T09:04:23.248Z,2.50
2019-04-22T09:05:42.124Z,2.30
2019-04-22T09:06:39.655Z,2.60
2019-04-22T09:07:29.171Z,2.50
2019-04-22T09:08:34.056Z,2.60
2019-04-22T09:09:27.074Z,2.60
2019-04-22T09:10:32.844Z,2.40
2019-04-22T09:11:35.533Z,2.40
2019-04-22T09:12:34.567Z,2.50
2019-04-22T09:13:31.847Z,2.20
2019-04-22T09:14:31.325Z,2.40
2019-04-22T09:15:31.027Z,2.60
2019-04-22T09:16:33.185Z,2.30
2019-04-22T09:17:28.591Z,2.30
2019-04-22T09:18:33.238Z,2.50
2019-04-22T09:19:43.624Z,2.60
2019-04-22T09:20:26.815Z,2.30
2019-04-22T09:22:26.287Z,2.50
2019-04-22T09:23:30.713Z,2.60
2019-04-22T09:24:29.535Z,2.30
2019-04-22T09:25:29.987Z,2.70
2019-04-22T09:26:30.605Z,2.50
2019-04-22T09:28:32.693Z,2.30
2019-04-22T09:30:34.945Z,2.60
2019-04-22T09:31:23.442Z,2.30
2019-04-22T09:32:26.416Z,2.20
2019-04-22T09:33:27.602Z,2.40
2019-04-22T09:34:27.739Z,2.20
2019-04-22T09:35:31.518Z,2.50
2019-04-22T09:36:28.821Z,2.20
2019-04-22T09:39:29.491Z,2.40
2019-04-22T09:40:28.405Z,2.40
2019-04-22T09:41:27.636Z,2.30
2019-04-22T09:43:31.612Z,2.40
2019-04-22T09:44:34.781Z,2.70
2019-04-22T09:45:21.418Z,2.20
2019-04-22T09:46:33.311Z,2.40
2019-04-22T09:47:29.653Z,2.30
2019-04-22T09:48:33.168Z,2.30
2019-04-22T09:49:40.551Z,2.70
2019-04-22T09:50:29.188Z,2.20
2019-04-22T09:51:25.352Z,2.20
2019-04-22T09:52:34.275Z,2.40
2019-04-22T09:53:31.921Z,2.20
2019-04-22T09:54:41.794Z,2.30
2019-04-22T09:55:26.616Z,2.50
2019-04-22T09:56:32.162Z,2.60
2019-04-22T09:57:24.603Z,2.40
2019-04-22T09:58:32.104Z,2.40
2019-04-22T09:59:27.193Z,2.40
2019-04-22T10:00:36.430Z,2.40
2019-04-22T10:03:26.010Z,2.30
2019-04-22T10:04:24.935Z,2.40
2019-04-22T10:05:28.565Z,2.20
2019-04-22T10:06:36.913Z,2.50
2019-04-22T10:07:25.713Z,2.50
2019-04-22T10:08:36.585Z,2.20
2019-04-22T10:09:40.622Z,2.50
2019-04-22T10:10:29.963Z,2.30
2019-04-22T10:11:32.510Z,2.40
2019-04-22T10:12:33.814Z,2.70
2019-04-22T10:13:34.366Z,2.50
2019-04-22T10:15:25.197Z,2.20
2019-04-22T10:15:30.174Z,2.30
2019-04-22T10:16:45.548Z,2.50
2019-04-22T10:17:26.081Z,2.60
2019-04-22T10:18:26.991Z,2.40
2019-04-22T10:19:24.345Z,2.40
2019-04-22T10:20:28.102Z,2.50
2019-04-22T10:21:35.289Z,2.30
2019-04-22T10:23:24.994Z,2.20
2019-04-22T10:24:26.444Z,2.20
2019-04-22T10:25:26.414Z,2.20
2019-04-22T10:26:27.973Z,2.70
2019-04-22T10:27:26.154Z,2.40
2019-04-22T10:28:32.578Z,2.30
2019-04-22T10:29:24.626Z,2.60
2019-04-22T10:30:33.867Z,2.60
2019-04-22T10:31:31.068Z,2.60
2019-04-22T10:32:27.131Z,2.60
2019-04-22T10:33:22.412Z,2.30
2019-04-22T10:34:14.167Z,2.20
2019-04-22T10:35:06.848Z,2.60
2019-04-22T10:36:01.485Z,2.50
2019-04-22T10:37:06.416Z,2.30
2019-04-22T10:38:01.103Z,2.70
2019-04-22T10:39:00.256Z,2.80
2019-04-22T10:40:03.986Z,2.60
2019-04-22T10:41:01.055Z,2.50
2019-04-22T10:42:00.092Z,2.50
2019-04-22T10:43:01.160Z,2.40
2019-04-22T10:44:01.307Z,2.50
2019-04-22T10:45:01.055Z,2.30
2019-04-22T10:46:00.018Z,2.40
2019-04-22T10:47:00.134Z,2.50
2019-04-22T10:48:01.348Z,2.30
2019-04-22T10:49:00.184Z,2.60
2019-04-22T10:50:00.662Z,2.30
2019-04-22T10:51:01.008Z,2.90
2019-04-22T10:52:00.414Z,2.30
2019-04-22T10:52:59.933Z,2.50
2019-04-22T10:53:59.920Z,2.60
2019-04-22T10:55:01.117Z,2.50
2019-04-22T10:56:00.947Z,2.40
2019-04-22T10:57:01.018Z,2.30
2019-04-22T10:57:59.877Z,2.50
2019-04-22T10:59:00.532Z,2.40
2019-04-22T11:00:00.899Z,2.60
2019-04-22T11:01:00.219Z,2.60
2019-04-22T11:02:01.241Z,2.50
2019-04-22T11:03:00.172Z,2.50
2019-04-22T11:03:59.813Z,2.50
2019-04-22T11:04:59.801Z,2.50
2019-04-22T11:06:01.145Z,2.50
2019-04-22T11:07:03.764Z,2.50
2019-04-22T11:08:04.707Z,2.70
2019-04-22T11:09:04.735Z,2.70
2019-04-22T11:10:18.304Z,2.60
2019-04-22T11:11:16.890Z,2.40
2019-04-22T11:12:06.429Z,2.40
2019-04-22T11:13:01.037Z,2.30
2019-04-22T11:14:00.110Z,2.40
2019-04-22T11:15:00.126Z,2.50
2019-04-22T11:16:00.539Z,2.50
2019-04-22T11:17:02.239Z,2.40
2019-04-22T11:17:59.800Z,2.40
2019-04-22T11:18:59.657Z,2.40
2019-04-22T11:19:59.645Z,2.50
2019-04-22T11:20:59.866Z,2.50
2019-04-22T11:22:07.859Z,2.50
2019-04-22T11:23:00.761Z,2.20
2019-04-22T11:24:00.729Z,2.70
2019-04-22T11:25:01.245Z,2.40
2019-04-22T11:25:59.738Z,2.60
2019-04-22T11:27:01.019Z,2.70
2019-04-22T11:28:00.036Z,2.50
2019-04-22T11:28:59.531Z,2.50
2019-04-22T11:29:59.566Z,2.60
2019-04-22T11:31:00.748Z,2.60
2019-04-22T11:32:00.086Z,2.30
2019-04-22T11:33:00.448Z,2.60
2019-04-22T11:34:00.731Z,2.30
2019-04-22T11:34:59.510Z,2.50
2019-04-22T11:35:59.962Z,2.70
2019-04-22T11:37:00.922Z,2.30
2019-04-22T11:38:00.983Z,2.30
2019-04-22T11:39:02.374Z,2.70
2019-04-22T11:40:11.780Z,2.70
2019-04-22T11:41:03.109Z,2.20
2019-04-22T11:42:00.381Z,2.40
2019-04-22T11:42:59.918Z,2.50
2019-04-22T11:43:59.384Z,2.30
2019-04-22T11:44:59.459Z,2.70
2019-04-22T11:45:59.592Z,2.40
2019-04-22T11:46:59.339Z,2.40
2019-04-22T11:47:59.589Z,2.40
2019-04-22T11:49:00.262Z,2.50
2019-04-22T11:49:59.758Z,2.60
2019-04-22T11:51:00.126Z,2.30
2019-04-22T11:51:59.294Z,2.50
2019-04-22T11:53:00.574Z,2.40
2019-04-22T11:54:00.865Z,2.20
2019-04-22T11:54:59.254Z,2.60
2019-04-22T11:56:00.491Z,2.40
2019-04-22T11:56:59.237Z,2.60
2019-04-22T11:57:59.220Z,2.70
2019-04-22T11:59:00.474Z,2.40
2019-04-22T12:00:00.897Z,2.40
2019-04-22T12:00:59.275Z,2.30
2019-04-22T12:02:00.473Z,2.30
2019-04-22T12:02:59.165Z,2.50
2019-04-22T12:03:59.927Z,2.30
2019-04-22T12:04:59.149Z,2.30
2019-04-22T12:05:59.800Z,2.60
2019-04-22T12:07:00.195Z,2.60
2019-04-22T12:07:59.352Z,2.30
2019-04-22T12:08:59.579Z,2.60
2019-04-22T12:09:59.747Z,2.40
2019-04-22T12:11:02.662Z,2.40
2019-04-22T12:12:00.102Z,2.20
2019-04-22T12:12:59.873Z,2.40
2019-04-22T12:14:00.174Z,2.50
2019-04-22T12:15:00.654Z,2.40
2019-04-22T12:15:59.100Z,2.40
2019-04-22T12:16:59.445Z,2.50
2019-04-22T12:17:59.331Z,2.50
2019-04-22T12:18:59.072Z,2.20
2019-04-22T12:20:00.468Z,2.60
2019-04-22T12:20:59.273Z,2.60
2019-04-22T12:21:59.096Z,2.40
2019-04-22T12:22:59.051Z,2.20
2019-04-22T12:23:59.230Z,2.80
2019-04-22T12:24:58.929Z,2.20
2019-04-22T12:26:04.235Z,2.50
2019-04-22T12:27:00.227Z,2.50
2019-04-22T12:27:59.235Z,2.20
2019-04-22T12:28:59.308Z,2.30
2019-04-22T12:29:58.873Z,2.60
2019-04-22T12:30:59.634Z,2.60
2019-04-22T12:31:59.690Z,2.40
2019-04-22T12:33:00.081Z,2.50
2019-04-22T12:33:59.328Z,2.50
2019-04-22T12:34:59.820Z,2.10
2019-04-22T12:36:00.149Z,2.30
2019-04-22T12:36:58.792Z,2.60
2019-04-22T12:38:02.636Z,2.20
2019-04-22T12:38:59.800Z,2.60
2019-04-22T12:40:00.307Z,2.50
2019-04-22T12:41:04.157Z,2.50
2019-04-22T12:42:00.342Z,2.40
2019-04-22T12:42:59.804Z,2.40
2019-04-22T12:44:00.982Z,2.40
2019-04-22T12:45:00.365Z,2.40
2019-04-22T12:45:58.706Z,2.60
2019-04-22T12:47:00.744Z,2.40
2019-04-22T12:48:00.018Z,2.80
2019-04-22T12:49:00.184Z,2.50
2019-04-22T12:50:10.347Z,2.40
2019-04-22T12:51:00.820Z,2.40
2019-04-22T12:51:58.993Z,2.20
2019-04-22T12:53:03.650Z,2.40
2019-04-22T12:54:01.122Z,2.80
2019-04-22T12:54:58.725Z,2.30
2019-04-22T12:55:59.494Z,2.50
2019-04-22T12:56:59.772Z,2.50
2019-04-22T12:58:00.779Z,2.20
2019-04-22T12:58:59.455Z,2.30
2019-04-22T12:59:59.562Z,2.50
2019-04-22T13:00:58.962Z,2.50
2019-04-22T13:01:58.661Z,2.50
2019-04-22T13:02:58.876Z,2.50
2019-04-22T13:04:03.746Z,2.40
2019-04-22T13:05:00.641Z,2.10
2019-04-22T13:05:59.373Z,2.40
2019-04-22T13:06:59.707Z,2.40
2019-04-22T13:07:59.898Z,2.30
2019-04-22T13:09:00.039Z,2.50
2019-04-22T13:09:59.249Z,2.60
2019-04-22T13:11:04.769Z,2.00
2019-04-22T13:11:59.455Z,2.20
2019-04-22T13:12:58.694Z,2.40
2019-04-22T13:13:59.004Z,2.50
2019-04-22T13:14:59.190Z,2.50
2019-04-22T13:15:59.369Z,2.60
2019-04-22T13:16:59.693Z,2.40
2019-04-22T13:18:05.779Z,2.40
2019-04-22T13:19:05.730Z,2.40
2019-04-22T13:20:00.445Z,2.60
2019-04-22T13:20:58.338Z,2.90
2019-04-22T13:21:58.675Z,2.50
2019-04-22T13:22:58.834Z,2.40
2019-04-22T13:23:59.238Z,2.60
2019-04-22T13:24:59.609Z,2.50
2019-04-22T13:25:59.059Z,2.10
2019-04-22T13:26:59.132Z,2.70
2019-04-22T13:27:58.246Z,2.50
2019-04-22T13:28:59.060Z,2.30
2019-04-22T13:29:59.764Z,2.60
2019-04-22T13:31:01.432Z,2.10
2019-04-22T13:31:58.621Z,2.50
2019-04-22T13:32:58.723Z,2.50
2019-04-22T13:34:01.689Z,2.40
2019-04-22T13:35:01.595Z,2.40
2019-04-22T13:35:59.297Z,2.20
2019-04-22T13:36:58.986Z,2.60
2019-04-22T13:37:59.358Z,2.50
2019-04-22T13:38:58.718Z,2.10
2019-04-22T13:39:58.970Z,2.30
2019-04-22T13:41:11.516Z,2.60
2019-04-22T13:42:03.565Z,2.40
2019-04-22T13:42:59.073Z,2.30
2019-04-22T13:43:58.193Z,2.70
2019-04-22T13:44:58.181Z,2.50
2019-04-22T13:45:58.470Z,2.20
2019-04-22T13:47:14.689Z,2.60
2019-04-22T13:48:16.833Z,2.60
2019-04-22T13:49:24.013Z,2.50
2019-04-22T13:50:36.425Z,2.40
2019-04-22T13:51:30.254Z,2.40
2019-04-22T13:55:27.338Z,2.30
2019-04-22T13:56:19.379Z,2.20
2019-04-22T13:57:20.975Z,2.60
2019-04-22T13:58:14.062Z,2.20
2019-04-22T13:59:08.737Z,2.40
2019-04-22T14:00:00.683Z,2.50
2019-04-22T14:00:58.546Z,2.50
2019-04-22T14:01:58.796Z,2.30
2019-04-22T14:02:58.268Z,2.50
2019-04-22T14:03:58.735Z,2.70
2019-04-22T14:04:59.164Z,2.50
2019-04-22T14:05:58.534Z,2.30
2019-04-22T14:06:58.770Z,2.40
2019-04-22T14:08:00.793Z,2.50
2019-04-22T14:08:59.037Z,2.50
2019-04-22T14:09:58.252Z,2.20
2019-04-22T14:11:09.821Z,2.40
2019-04-22T14:12:05.212Z,2.30
2019-04-22T14:13:00.231Z,2.40
2019-04-22T14:13:58.750Z,2.40
2019-04-22T14:14:58.444Z,2.90
2019-04-22T14:15:59.306Z,2.50
2019-04-22T14:16:58.777Z,2.50
2019-04-22T14:17:58.787Z,2.40
2019-04-22T14:18:58.145Z,2.70
2019-04-22T14:19:57.698Z,2.70
2019-04-22T14:20:58.672Z,2.50
2019-04-22T14:21:57.827Z,2.20
2019-04-22T14:22:58.733Z,2.20
2019-04-22T14:23:58.503Z,2.30
2019-04-22T14:24:58.867Z,2.30
2019-04-22T14:25:59.019Z,2.30
2019-04-22T14:27:13.566Z,2.30
2019-04-22T14:28:05.432Z,2.40
2019-04-22T14:28:59.982Z,2.20
2019-04-22T14:29:57.773Z,2.40
2019-04-22T14:30:57.556Z,2.30
2019-04-22T14:32:06.690Z,2.50
2019-04-22T14:32:58.537Z,2.40
2019-04-22T14:34:01.836Z,2.40
2019-04-22T14:34:58.522Z,2.20
2019-04-22T14:35:58.524Z,2.50
2019-04-22T14:36:57.496Z,2.40
2019-04-22T14:37:58.314Z,2.20
2019-04-22T14:38:57.843Z,2.30
2019-04-22T14:39:57.816Z,2.40
2019-04-22T14:40:58.587Z,2.30
2019-04-22T14:42:18.842Z,2.30
2019-04-22T14:43:23.256Z,2.20
2019-04-22T14:44:56.433Z,2.40
2019-04-22T14:45:28.735Z,2.30
2019-04-22T14:46:20.600Z,2.30
2019-04-22T14:47:19.633Z,2.40
2019-04-22T14:48:24.767Z,2.30
2019-04-22T14:49:23.954Z,2.50
2019-04-22T14:50:17.672Z,2.40
2019-04-22T14:51:18.934Z,2.30
2019-04-22T14:52:22.779Z,2.30
2019-04-22T14:54:13.728Z,2.30
2019-04-22T14:55:06.078Z,2.40
2019-04-22T14:55:58.292Z,2.40
2019-04-22T14:56:57.273Z,2.30
2019-04-22T14:57:57.268Z,2.50
2019-04-22T14:58:58.723Z,2.10
2019-04-22T14:59:57.883Z,2.10
2019-04-22T15:00:57.242Z,2.40
2019-04-22T15:01:58.151Z,2.30
2019-04-22T15:02:57.580Z,2.70
2019-04-22T15:03:58.637Z,2.30
2019-04-22T15:04:58.403Z,2.20
2019-04-22T15:05:57.960Z,2.40
2019-04-22T15:06:57.172Z,2.40
2019-04-22T15:07:57.387Z,2.10
2019-04-22T15:08:59.039Z,2.50
2019-04-22T15:09:57.779Z,2.20
2019-04-22T15:10:58.264Z,2.30
2019-04-22T15:12:08.721Z,2.30
2019-04-22T15:13:00.591Z,2.40
2019-04-22T15:13:57.099Z,2.60
2019-04-22T15:14:57.575Z,2.20
2019-04-22T15:15:59.526Z,2.40